Terminal Aerodrome Forecast
Issued by NWS Billings, MT

Home | Current Version | Previous Version | Graphics & Text | Print | Product List | Glossary On
Versions: 1 2 3 4 5 6 7 8 9 10 11 12 13 14 15 16 17 18 19 20 21 22 23 24 25 26
000
FTUS45 KBYZ 281722
TAFMLS
TAF
KMLS 281722Z 2818/2918 29035G50KT P6SM VCSH SCT035 BKN060 OVC080
     FM290100 30015G30KT P6SM SCT100
     FM290600 22010KT P6SM FEW100
     FM291400 28010G15KT P6SM FEW100=

USA.gov is the U.S. government's official web portal to all federal, state and local government web resources and services.